Česky Dansk Deutsch English Español Suomi Français Magyar Italiano Nederlands norsk Polski Português svenska Türkçe

 

Het Weer

Monte Caseros Aerodrome (Argentinië)

11:20, 11 juli 2012 (GMT)

NWNNE
WE
SWSSE
Home            
Monte Caseros Aerodrome Curuzu Cuatia Aerodrome Uruguaiana Aeroporto Paso De Los Libres Aerodrome Artigas Concordia Aerodrome Salto Rivera Villaguay Aerodrome Tacuarembo Reconquista, SF Paysandu Gualeguaychu Aerodrome Parana Aerodrome Corrientes Aero. Mercedes Sauce Viejo Aerodrome Resistencia Aero. Bage Aeroporto Durazno Posadas Aero. Encarnacion Santa Maria Aero-Porto

Om een weerknop op uw website of weblog te plaatsen, copieer onderstaande code en plak die in uw pagina. In het eerste vakje staat HTML-code, in het tweede vakje UBB-code.


Add to Google

Details

Wind speed:1 bf, 2 kn, 1.0 m/s, 2.3 miles/h, 3.7 km/h
Wind direction:SW, 230°
Visibility: 5000 m, 5.0 km, 16404 ft, 3.1 miles
Het Weer:moderate fog
Temperature:1°C, 34°F
Atmospheric pressure:1018 hPa, 763.6 mmHg, 30.06 inHg, 1.005 atm
METAR:SARM 111120Z 23002KT 5000 FG 01/00 Q1018

Snelkoppelingen

Actuele weersinformatie van de hele wereld. Voeg locaties toe met het plus (+) symbool. Deze snelkoppelingen kunnen worden toegevoegd aan Google.

Lid van de Technetium groep

website free tracking
StatCounter NetStat W3C Validator

27-09-2022 11:49:41
astro.technetium.be money.technetium.be phote.technetium.be tafeltennistafel.technetium.be www.ligfiets.net